sensor_id;sensor_type;location;lat;lon;timestamp;temperature;humidity
6260;DHT22;3163;51.516;4.000;2023-02-28T00:02:18;8.00;99.90
6260;DHT22;3163;51.516;4.000;2023-02-28T00:04:44;8.00;99.90
6260;DHT22;3163;51.516;4.000;2023-02-28T00:07:10;8.00;99.90
6260;DHT22;3163;51.516;4.000;2023-02-28T00:09:35;7.90;99.90
6260;DHT22;3163;51.516;4.000;2023-02-28T00:12:01;7.90;99.90
6260;DHT22;3163;51.516;4.000;2023-02-28T00:14:36;7.90;99.90
6260;DHT22;3163;51.516;4.000;2023-02-28T00:17:02;7.90;99.90
6260;DHT22;3163;51.516;4.000;2023-02-28T00:19:28;7.90;99.90
6260;DHT22;3163;51.516;4.000;2023-02-28T00:21:53;7.90;99.90
6260;DHT22;3163;51.516;4.000;2023-02-28T00:24:19;7.90;99.90
6260;DHT22;3163;51.516;4.000;2023-02-28T00:26:44;7.90;99.90
6260;DHT22;3163;51.516;4.000;2023-02-28T00:29:10;7.90;99.90
6260;DHT22;3163;51.516;4.000;2023-02-28T00:31:35;7.90;99.90
6260;DHT22;3163;51.516;4.000;2023-02-28T00:34:01;7.90;99.90
6260;DHT22;3163;51.516;4.000;2023-02-28T00:36:27;7.90;99.90
6260;DHT22;3163;51.516;4.000;2023-02-28T00:38:52;7.90;99.90
6260;DHT22;3163;51.516;4.000;2023-02-28T00:41:18;7.90;99.90
6260;DHT22;3163;51.516;4.000;2023-02-28T00:43:44;7.90;99.90
6260;DHT22;3163;51.516;4.000;2023-02-28T00:46:09;7.90;99.90
6260;DHT22;3163;51.516;4.000;2023-02-28T00:48:35;7.90;99.90
6260;DHT22;3163;51.516;4.000;2023-02-28T00:51:01;7.80;99.90
6260;DHT22;3163;51.516;4.000;2023-02-28T00:53:27;7.70;99.90
6260;DHT22;3163;51.516;4.000;2023-02-28T00:55:53;7.80;99.90
6260;DHT22;3163;51.516;4.000;2023-02-28T00:58:19;7.80;99.90
6260;DHT22;3163;51.516;4.000;2023-02-28T01:00:45;7.80;99.90
6260;DHT22;3163;51.516;4.000;2023-02-28T01:03:17;7.80;99.90
6260;DHT22;3163;51.516;4.000;2023-02-28T01:05:43;7.80;99.90
6260;DHT22;3163;51.516;4.000;2023-02-28T01:08:09;7.80;99.90
6260;DHT22;3163;51.516;4.000;2023-02-28T01:10:34;7.80;99.90
6260;DHT22;3163;51.516;4.000;2023-02-28T01:13:02;7.80;99.90
6260;DHT22;3163;51.516;4.000;2023-02-28T01:15:28;7.80;99.90
6260;DHT22;3163;51.516;4.000;2023-02-28T01:17:54;7.80;99.90
6260;DHT22;3163;51.516;4.000;2023-02-28T01:20:19;7.70;99.90
6260;DHT22;3163;51.516;4.000;2023-02-28T01:22:45;7.80;99.90
6260;DHT22;3163;51.516;4.000;2023-02-28T01:25:12;7.80;99.90
6260;DHT22;3163;51.516;4.000;2023-02-28T01:27:37;7.80;99.90
6260;DHT22;3163;51.516;4.000;2023-02-28T01:30:06;7.80;99.90
6260;DHT22;3163;51.516;4.000;2023-02-28T01:32:31;7.90;99.90
6260;DHT22;3163;51.516;4.000;2023-02-28T01:34:57;7.80;99.90
6260;DHT22;3163;51.516;4.000;2023-02-28T01:37:23;7.80;99.90
6260;DHT22;3163;51.516;4.000;2023-02-28T01:39:48;7.80;99.90
6260;DHT22;3163;51.516;4.000;2023-02-28T01:42:14;7.80;99.90
6260;DHT22;3163;51.516;4.000;2023-02-28T01:47:43;7.80;99.90
6260;DHT22;3163;51.516;4.000;2023-02-28T01:50:18;7.80;99.90
6260;DHT22;3163;51.516;4.000;2023-02-28T01:52:45;7.70;99.90
6260;DHT22;3163;51.516;4.000;2023-02-28T01:55:14;7.70;99.90
6260;DHT22;3163;51.516;4.000;2023-02-28T01:57:46;7.70;99.90
6260;DHT22;3163;51.516;4.000;2023-02-28T02:00:16;7.70;99.90
6260;DHT22;3163;51.516;4.000;2023-02-28T02:02:45;7.70;99.90
6260;DHT22;3163;51.516;4.000;2023-02-28T02:05:18;7.70;99.90
6260;DHT22;3163;51.516;4.000;2023-02-28T02:07:46;7.70;99.90
6260;DHT22;3163;51.516;4.000;2023-02-28T02:10:19;7.60;99.90
6260;DHT22;3163;51.516;4.000;2023-02-28T02:18:33;7.70;99.90
6260;DHT22;3163;51.516;4.000;2023-02-28T02:40:17;7.70;99.90
6260;DHT22;3163;51.516;4.000;2023-02-28T02:45:33;7.70;99.90
6260;DHT22;3163;51.516;4.000;2023-02-28T02:48:03;7.60;99.90
6260;DHT22;3163;51.516;4.000;2023-02-28T02:50:38;7.60;99.90
6260;DHT22;3163;51.516;4.000;2023-02-28T02:53:06;7.60;99.90
6260;DHT22;3163;51.516;4.000;2023-02-28T02:55:36;7.60;99.90
6260;DHT22;3163;51.516;4.000;2023-02-28T02:58:05;7.60;99.90
6260;DHT22;3163;51.516;4.000;2023-02-28T03:00:36;7.60;99.90
6260;DHT22;3163;51.516;4.000;2023-02-28T03:03:02;7.60;99.90
6260;DHT22;3163;51.516;4.000;2023-02-28T03:05:42;7.70;99.90
6260;DHT22;3163;51.516;4.000;2023-02-28T03:08:09;7.60;99.90
6260;DHT22;3163;51.516;4.000;2023-02-28T03:10:38;7.60;99.90
6260;DHT22;3163;51.516;4.000;2023-02-28T03:21:43;7.70;99.90
6260;DHT22;3163;51.516;4.000;2023-02-28T03:24:25;7.70;99.90
6260;DHT22;3163;51.516;4.000;2023-02-28T03:26:57;7.70;99.90
6260;DHT22;3163;51.516;4.000;2023-02-28T03:29:32;7.70;99.90
6260;DHT22;3163;51.516;4.000;2023-02-28T03:32:11;7.70;99.90
6260;DHT22;3163;51.516;4.000;2023-02-28T03:34:48;7.60;99.90
6260;DHT22;3163;51.516;4.000;2023-02-28T03:37:19;7.60;99.90
6260;DHT22;3163;51.516;4.000;2023-02-28T03:39:55;7.70;99.90
6260;DHT22;3163;51.516;4.000;2023-02-28T03:42:25;7.60;99.90
6260;DHT22;3163;51.516;4.000;2023-02-28T03:45:02;7.60;99.90
6260;DHT22;3163;51.516;4.000;2023-02-28T03:50:11;7.50;99.90
6260;DHT22;3163;51.516;4.000;2023-02-28T03:53:02;7.50;99.90
6260;DHT22;3163;51.516;4.000;2023-02-28T03:55:33;7.50;99.90
6260;DHT22;3163;51.516;4.000;2023-02-28T03:58:17;7.50;99.90
6260;DHT22;3163;51.516;4.000;2023-02-28T04:00:55;7.50;99.90
6260;DHT22;3163;51.516;4.000;2023-02-28T04:03:22;7.60;99.90
6260;DHT22;3163;51.516;4.000;2023-02-28T04:05:53;7.50;99.90
6260;DHT22;3163;51.516;4.000;2023-02-28T04:08:20;7.60;99.90
6260;DHT22;3163;51.516;4.000;2023-02-28T04:11:35;7.60;99.90
6260;DHT22;3163;51.516;4.000;2023-02-28T04:13:35;7.60;99.90
6260;DHT22;3163;51.516;4.000;2023-02-28T04:16:01;7.50;99.90
6260;DHT22;3163;51.516;4.000;2023-02-28T04:18:26;7.60;99.90
6260;DHT22;3163;51.516;4.000;2023-02-28T04:20:52;7.60;99.90
6260;DHT22;3163;51.516;4.000;2023-02-28T04:23:17;7.60;99.90
6260;DHT22;3163;51.516;4.000;2023-02-28T04:25:43;7.60;99.90
6260;DHT22;3163;51.516;4.000;2023-02-28T04:28:09;7.60;99.90
6260;DHT22;3163;51.516;4.000;2023-02-28T04:30:35;7.60;99.90
6260;DHT22;3163;51.516;4.000;2023-02-28T04:33:01;7.60;99.90
6260;DHT22;3163;51.516;4.000;2023-02-28T04:35:26;7.50;99.90
6260;DHT22;3163;51.516;4.000;2023-02-28T04:37:52;7.50;99.90
6260;DHT22;3163;51.516;4.000;2023-02-28T04:40:18;7.50;99.90
6260;DHT22;3163;51.516;4.000;2023-02-28T04:42:43;7.50;99.90
6260;DHT22;3163;51.516;4.000;2023-02-28T04:45:09;7.60;99.90
6260;DHT22;3163;51.516;4.000;2023-02-28T04:47:36;7.50;99.90
6260;DHT22;3163;51.516;4.000;2023-02-28T04:50:01;7.50;99.90
6260;DHT22;3163;51.516;4.000;2023-02-28T04:52:27;7.50;99.90
6260;DHT22;3163;51.516;4.000;2023-02-28T04:54:53;7.50;99.90
6260;DHT22;3163;51.516;4.000;2023-02-28T04:57:18;7.50;99.90
6260;DHT22;3163;51.516;4.000;2023-02-28T04:59:44;7.50;99.90
6260;DHT22;3163;51.516;4.000;2023-02-28T05:02:10;7.40;99.90
6260;DHT22;3163;51.516;4.000;2023-02-28T05:04:35;7.60;99.90
6260;DHT22;3163;51.516;4.000;2023-02-28T05:07:02;7.50;99.90
6260;DHT22;3163;51.516;4.000;2023-02-28T05:09:28;7.50;99.90
6260;DHT22;3163;51.516;4.000;2023-02-28T05:11:54;7.50;99.90
6260;DHT22;3163;51.516;4.000;2023-02-28T05:14:20;7.50;99.90
6260;DHT22;3163;51.516;4.000;2023-02-28T05:16:46;7.50;99.90
6260;DHT22;3163;51.516;4.000;2023-02-28T05:19:11;7.50;99.90
6260;DHT22;3163;51.516;4.000;2023-02-28T05:21:48;7.50;99.90
6260;DHT22;3163;51.516;4.000;2023-02-28T05:24:14;7.60;99.90
6260;DHT22;3163;51.516;4.000;2023-02-28T05:26:42;7.60;99.90
6260;DHT22;3163;51.516;4.000;2023-02-28T05:29:08;7.60;99.90
6260;DHT22;3163;51.516;4.000;2023-02-28T05:31:34;7.50;99.90
6260;DHT22;3163;51.516;4.000;2023-02-28T05:34:00;7.50;99.90
6260;DHT22;3163;51.516;4.000;2023-02-28T05:36:26;7.60;99.90
6260;DHT22;3163;51.516;4.000;2023-02-28T05:38:52;7.50;99.90
6260;DHT22;3163;51.516;4.000;2023-02-28T05:41:18;7.50;99.90
6260;DHT22;3163;51.516;4.000;2023-02-28T05:43:45;7.50;99.90
6260;DHT22;3163;51.516;4.000;2023-02-28T05:46:11;7.50;99.90
6260;DHT22;3163;51.516;4.000;2023-02-28T05:48:39;7.50;99.90
6260;DHT22;3163;51.516;4.000;2023-02-28T05:51:05;7.40;99.90
6260;DHT22;3163;51.516;4.000;2023-02-28T05:53:32;7.40;99.90
6260;DHT22;3163;51.516;4.000;2023-02-28T05:55:58;7.40;99.90
6260;DHT22;3163;51.516;4.000;2023-02-28T05:58:24;7.40;99.90
6260;DHT22;3163;51.516;4.000;2023-02-28T06:00:56;7.40;99.90
6260;DHT22;3163;51.516;4.000;2023-02-28T06:03:22;7.40;99.90
6260;DHT22;3163;51.516;4.000;2023-02-28T06:05:47;7.40;99.90
6260;DHT22;3163;51.516;4.000;2023-02-28T06:08:13;7.40;99.90
6260;DHT22;3163;51.516;4.000;2023-02-28T06:10:38;7.40;99.90
6260;DHT22;3163;51.516;4.000;2023-02-28T06:13:04;7.40;99.90
6260;DHT22;3163;51.516;4.000;2023-02-28T06:15:31;7.40;99.90
6260;DHT22;3163;51.516;4.000;2023-02-28T06:17:57;7.20;99.90
6260;DHT22;3163;51.516;4.000;2023-02-28T06:20:24;7.30;99.90
6260;DHT22;3163;51.516;4.000;2023-02-28T06:22:49;6.80;99.90
6260;DHT22;3163;51.516;4.000;2023-02-28T06:25:19;6.70;99.90
6260;DHT22;3163;51.516;4.000;2023-02-28T06:27:45;7.20;99.90
6260;DHT22;3163;51.516;4.000;2023-02-28T06:30:12;7.10;99.90
6260;DHT22;3163;51.516;4.000;2023-02-28T06:32:37;7.30;99.90
6260;DHT22;3163;51.516;4.000;2023-02-28T06:35:03;6.90;99.90
6260;DHT22;3163;51.516;4.000;2023-02-28T06:37:31;7.10;99.90
6260;DHT22;3163;51.516;4.000;2023-02-28T06:39:56;7.20;99.90
6260;DHT22;3163;51.516;4.000;2023-02-28T06:42:23;7.10;99.90
6260;DHT22;3163;51.516;4.000;2023-02-28T06:44:54;7.10;99.90
6260;DHT22;3163;51.516;4.000;2023-02-28T06:47:20;6.90;99.90
6260;DHT22;3163;51.516;4.000;2023-02-28T06:49:46;6.60;99.90
6260;DHT22;3163;51.516;4.000;2023-02-28T06:52:12;6.10;99.90
6260;DHT22;3163;51.516;4.000;2023-02-28T06:54:38;5.70;99.90
6260;DHT22;3163;51.516;4.000;2023-02-28T06:57:03;5.60;99.90
6260;DHT22;3163;51.516;4.000;2023-02-28T06:59:30;6.30;99.90
6260;DHT22;3163;51.516;4.000;2023-02-28T07:01:55;5.70;99.90
6260;DHT22;3163;51.516;4.000;2023-02-28T07:04:21;5.80;99.90
6260;DHT22;3163;51.516;4.000;2023-02-28T07:06:47;5.60;99.90
6260;DHT22;3163;51.516;4.000;2023-02-28T07:09:13;5.80;99.90
6260;DHT22;3163;51.516;4.000;2023-02-28T07:11:39;6.00;99.90
6260;DHT22;3163;51.516;4.000;2023-02-28T07:14:06;6.20;99.90
6260;DHT22;3163;51.516;4.000;2023-02-28T07:16:33;6.40;99.90
6260;DHT22;3163;51.516;4.000;2023-02-28T07:18:58;5.90;99.90
6260;DHT22;3163;51.516;4.000;2023-02-28T07:21:24;6.60;99.90
6260;DHT22;3163;51.516;4.000;2023-02-28T07:23:50;6.30;99.90
6260;DHT22;3163;51.516;4.000;2023-02-28T07:26:18;6.00;99.90
6260;DHT22;3163;51.516;4.000;2023-02-28T07:28:46;6.40;99.90
6260;DHT22;3163;51.516;4.000;2023-02-28T07:31:13;6.30;99.90
6260;DHT22;3163;51.516;4.000;2023-02-28T07:33:41;6.50;99.90
6260;DHT22;3163;51.516;4.000;2023-02-28T07:36:13;6.20;99.90
6260;DHT22;3163;51.516;4.000;2023-02-28T07:38:44;6.50;99.90
6260;DHT22;3163;51.516;4.000;2023-02-28T07:41:11;6.20;99.90
6260;DHT22;3163;51.516;4.000;2023-02-28T07:43:37;6.90;99.90
6260;DHT22;3163;51.516;4.000;2023-02-28T07:46:08;7.20;99.90
6260;DHT22;3163;51.516;4.000;2023-02-28T07:48:34;7.40;99.90
6260;DHT22;3163;51.516;4.000;2023-02-28T07:51:00;7.50;99.90
6260;DHT22;3163;51.516;4.000;2023-02-28T07:53:27;7.50;99.90
6260;DHT22;3163;51.516;4.000;2023-02-28T07:55:57;7.60;99.90
6260;DHT22;3163;51.516;4.000;2023-02-28T07:58:23;7.60;99.90
6260;DHT22;3163;51.516;4.000;2023-02-28T08:00:49;7.60;99.90
6260;DHT22;3163;51.516;4.000;2023-02-28T08:03:16;7.80;99.90
6260;DHT22;3163;51.516;4.000;2023-02-28T08:05:42;7.70;99.90
6260;DHT22;3163;51.516;4.000;2023-02-28T08:08:08;7.90;99.90
6260;DHT22;3163;51.516;4.000;2023-02-28T08:10:34;8.00;99.90
6260;DHT22;3163;51.516;4.000;2023-02-28T08:12:59;8.00;99.90
6260;DHT22;3163;51.516;4.000;2023-02-28T08:15:25;8.10;99.90
6260;DHT22;3163;51.516;4.000;2023-02-28T08:17:51;8.10;99.90
6260;DHT22;3163;51.516;4.000;2023-02-28T08:20:16;8.20;99.90
6260;DHT22;3163;51.516;4.000;2023-02-28T08:22:42;8.20;99.90
6260;DHT22;3163;51.516;4.000;2023-02-28T08:25:08;8.10;99.90
6260;DHT22;3163;51.516;4.000;2023-02-28T08:27:35;8.10;99.90
6260;DHT22;3163;51.516;4.000;2023-02-28T08:30:00;8.10;99.90
6260;DHT22;3163;51.516;4.000;2023-02-28T08:32:26;8.10;99.90
6260;DHT22;3163;51.516;4.000;2023-02-28T08:34:52;8.10;99.90
6260;DHT22;3163;51.516;4.000;2023-02-28T08:37:17;8.10;99.90
6260;DHT22;3163;51.516;4.000;2023-02-28T08:39:43;8.10;99.90
6260;DHT22;3163;51.516;4.000;2023-02-28T08:42:08;8.10;99.90
6260;DHT22;3163;51.516;4.000;2023-02-28T08:44:34;8.00;99.90
6260;DHT22;3163;51.516;4.000;2023-02-28T08:47:00;8.10;99.90
6260;DHT22;3163;51.516;4.000;2023-02-28T08:49:26;8.20;99.90
6260;DHT22;3163;51.516;4.000;2023-02-28T08:51:51;8.10;99.90
6260;DHT22;3163;51.516;4.000;2023-02-28T08:54:17;8.00;99.90
6260;DHT22;3163;51.516;4.000;2023-02-28T08:56:45;8.10;99.90
6260;DHT22;3163;51.516;4.000;2023-02-28T08:59:12;8.20;99.90
6260;DHT22;3163;51.516;4.000;2023-02-28T09:01:39;8.10;99.90
6260;DHT22;3163;51.516;4.000;2023-02-28T09:04:06;8.00;99.90
6260;DHT22;3163;51.516;4.000;2023-02-28T09:06:34;8.10;99.90
6260;DHT22;3163;51.516;4.000;2023-02-28T09:09:00;8.10;99.90
6260;DHT22;3163;51.516;4.000;2023-02-28T09:11:27;8.10;99.90
6260;DHT22;3163;51.516;4.000;2023-02-28T09:13:52;8.10;99.90
6260;DHT22;3163;51.516;4.000;2023-02-28T09:16:19;8.30;99.90
6260;DHT22;3163;51.516;4.000;2023-02-28T09:18:45;8.40;99.90
6260;DHT22;3163;51.516;4.000;2023-02-28T09:21:13;8.50;99.90
6260;DHT22;3163;51.516;4.000;2023-02-28T09:23:40;8.40;99.90
6260;DHT22;3163;51.516;4.000;2023-02-28T09:26:07;8.40;99.90
6260;DHT22;3163;51.516;4.000;2023-02-28T09:28:33;8.50;99.90
6260;DHT22;3163;51.516;4.000;2023-02-28T09:30:58;8.50;99.90
6260;DHT22;3163;51.516;4.000;2023-02-28T09:33:25;8.40;99.90
6260;DHT22;3163;51.516;4.000;2023-02-28T09:35:53;8.40;99.90
6260;DHT22;3163;51.516;4.000;2023-02-28T09:38:22;8.40;99.90
6260;DHT22;3163;51.516;4.000;2023-02-28T09:40:51;8.40;99.90
6260;DHT22;3163;51.516;4.000;2023-02-28T09:43:21;8.30;99.90
6260;DHT22;3163;51.516;4.000;2023-02-28T09:45:57;8.40;99.90
6260;DHT22;3163;51.516;4.000;2023-02-28T09:48:29;8.40;99.90
6260;DHT22;3163;51.516;4.000;2023-02-28T09:51:09;8.20;99.90
6260;DHT22;3163;51.516;4.000;2023-02-28T09:53:38;8.00;99.90
6260;DHT22;3163;51.516;4.000;2023-02-28T09:56:10;8.10;99.90
6260;DHT22;3163;51.516;4.000;2023-02-28T09:58:48;8.00;99.90
6260;DHT22;3163;51.516;4.000;2023-02-28T10:06:44;8.00;99.90
6260;DHT22;3163;51.516;4.000;2023-02-28T10:09:21;7.60;99.90
6260;DHT22;3163;51.516;4.000;2023-02-28T10:11:50;7.70;99.90
6260;DHT22;3163;51.516;4.000;2023-02-28T10:14:23;7.80;99.90
6260;DHT22;3163;51.516;4.000;2023-02-28T10:16:53;8.00;99.90
6260;DHT22;3163;51.516;4.000;2023-02-28T10:19:25;7.90;99.90
6260;DHT22;3163;51.516;4.000;2023-02-28T10:21:57;8.00;99.90
6260;DHT22;3163;51.516;4.000;2023-02-28T10:24:41;7.90;99.90
6260;DHT22;3163;51.516;4.000;2023-02-28T10:27:33;7.90;99.90
6260;DHT22;3163;51.516;4.000;2023-02-28T10:30:00;7.70;99.90
6260;DHT22;3163;51.516;4.000;2023-02-28T10:32:32;7.40;99.90
6260;DHT22;3163;51.516;4.000;2023-02-28T10:37:47;7.70;99.90
6260;DHT22;3163;51.516;4.000;2023-02-28T10:45:29;7.50;99.90
6260;DHT22;3163;51.516;4.000;2023-02-28T10:53:25;8.20;99.90
6260;DHT22;3163;51.516;4.000;2023-02-28T10:58:23;7.80;99.90
6260;DHT22;3163;51.516;4.000;2023-02-28T11:00:49;8.20;99.90
6260;DHT22;3163;51.516;4.000;2023-02-28T11:03:31;7.50;99.90
6260;DHT22;3163;51.516;4.000;2023-02-28T11:06:03;7.70;99.90
6260;DHT22;3163;51.516;4.000;2023-02-28T11:08:29;8.20;99.90
6260;DHT22;3163;51.516;4.000;2023-02-28T11:10:58;7.90;99.90
6260;DHT22;3163;51.516;4.000;2023-02-28T11:13:35;8.00;99.90
6260;DHT22;3163;51.516;4.000;2023-02-28T11:16:07;8.50;99.90
6260;DHT22;3163;51.516;4.000;2023-02-28T11:21:06;9.20;99.90
6260;DHT22;3163;51.516;4.000;2023-02-28T11:23:34;9.20;99.90
6260;DHT22;3163;51.516;4.000;2023-02-28T11:26:03;9.30;99.90
6260;DHT22;3163;51.516;4.000;2023-02-28T11:28:32;9.60;99.90
6260;DHT22;3163;51.516;4.000;2023-02-28T11:31:15;9.70;99.90
6260;DHT22;3163;51.516;4.000;2023-02-28T11:33:53;9.90;99.90
6260;DHT22;3163;51.516;4.000;2023-02-28T11:36:28;9.90;99.90
6260;DHT22;3163;51.516;4.000;2023-02-28T11:38:56;10.10;99.90
6260;DHT22;3163;51.516;4.000;2023-02-28T11:47:09;10.70;99.90
6260;DHT22;3163;51.516;4.000;2023-02-28T11:52:32;10.70;99.90
6260;DHT22;3163;51.516;4.000;2023-02-28T11:55:20;10.70;99.90
6260;DHT22;3163;51.516;4.000;2023-02-28T11:58:21;10.70;99.90
6260;DHT22;3163;51.516;4.000;2023-02-28T12:06:31;10.70;99.90
6260;DHT22;3163;51.516;4.000;2023-02-28T12:09:23;10.80;99.90
6260;DHT22;3163;51.516;4.000;2023-02-28T12:12:07;10.80;99.90
6260;DHT22;3163;51.516;4.000;2023-02-28T12:17:42;10.70;99.90
6260;DHT22;3163;51.516;4.000;2023-02-28T12:20:26;11.00;99.90
6260;DHT22;3163;51.516;4.000;2023-02-28T12:23:32;11.00;99.90
6260;DHT22;3163;51.516;4.000;2023-02-28T12:29:00;11.00;99.90
6260;DHT22;3163;51.516;4.000;2023-02-28T12:31:28;11.30;99.90
6260;DHT22;3163;51.516;4.000;2023-02-28T12:34:10;11.70;99.90
6260;DHT22;3163;51.516;4.000;2023-02-28T12:36:38;11.60;99.90
6260;DHT22;3163;51.516;4.000;2023-02-28T12:39:10;11.20;99.90
6260;DHT22;3163;51.516;4.000;2023-02-28T12:41:45;11.40;99.90
6260;DHT22;3163;51.516;4.000;2023-02-28T12:44:52;11.40;99.90
6260;DHT22;3163;51.516;4.000;2023-02-28T12:47:19;11.80;99.90
6260;DHT22;3163;51.516;4.000;2023-02-28T12:52:23;11.80;99.90
6260;DHT22;3163;51.516;4.000;2023-02-28T12:54:54;11.60;99.90
6260;DHT22;3163;51.516;4.000;2023-02-28T12:57:52;11.80;99.90
6260;DHT22;3163;51.516;4.000;2023-02-28T13:00:22;11.90;99.90
6260;DHT22;3163;51.516;4.000;2023-02-28T13:10:48;11.70;99.90
6260;DHT22;3163;51.516;4.000;2023-02-28T13:13:27;11.90;99.90
6260;DHT22;3163;51.516;4.000;2023-02-28T13:16:08;11.50;99.90
6260;DHT22;3163;51.516;4.000;2023-02-28T13:18:37;11.70;97.00
6260;DHT22;3163;51.516;4.000;2023-02-28T13:21:06;11.70;99.90
6260;DHT22;3163;51.516;4.000;2023-02-28T13:26:16;11.70;99.90
6260;DHT22;3163;51.516;4.000;2023-02-28T13:28:58;11.60;99.90
6260;DHT22;3163;51.516;4.000;2023-02-28T13:31:27;11.80;99.90
6260;DHT22;3163;51.516;4.000;2023-02-28T13:36:32;11.90;99.90
6260;DHT22;3163;51.516;4.000;2023-02-28T13:38:59;11.90;99.90
6260;DHT22;3163;51.516;4.000;2023-02-28T13:44:21;11.70;99.90
6260;DHT22;3163;51.516;4.000;2023-02-28T13:51:47;10.70;99.90
6260;DHT22;3163;51.516;4.000;2023-02-28T14:00:07;11.10;99.90
6260;DHT22;3163;51.516;4.000;2023-02-28T14:05:17;11.10;99.90
6260;DHT22;3163;51.516;4.000;2023-02-28T14:07:56;11.20;99.90
6260;DHT22;3163;51.516;4.000;2023-02-28T14:10:25;10.60;99.90
6260;DHT22;3163;51.516;4.000;2023-02-28T14:13:02;10.60;99.90
6260;DHT22;3163;51.516;4.000;2023-02-28T14:15:40;10.70;99.90
6260;DHT22;3163;51.516;4.000;2023-02-28T14:20:42;10.40;99.90
6260;DHT22;3163;51.516;4.000;2023-02-28T14:35:29;10.30;99.90
6260;DHT22;3163;51.516;4.000;2023-02-28T14:38:05;10.30;99.90
6260;DHT22;3163;51.516;4.000;2023-02-28T14:40:36;10.30;99.90
6260;DHT22;3163;51.516;4.000;2023-02-28T14:43:05;10.10;99.90
6260;DHT22;3163;51.516;4.000;2023-02-28T14:45:33;10.10;99.90
6260;DHT22;3163;51.516;4.000;2023-02-28T14:48:01;10.00;99.90
6260;DHT22;3163;51.516;4.000;2023-02-28T14:50:34;10.20;99.90
6260;DHT22;3163;51.516;4.000;2023-02-28T14:53:01;10.20;99.90
6260;DHT22;3163;51.516;4.000;2023-02-28T14:55:35;10.20;99.90
6260;DHT22;3163;51.516;4.000;2023-02-28T14:58:03;10.20;99.90
6260;DHT22;3163;51.516;4.000;2023-02-28T15:00:35;10.40;99.90
6260;DHT22;3163;51.516;4.000;2023-02-28T15:03:18;10.40;99.90
6260;DHT22;3163;51.516;4.000;2023-02-28T15:05:53;10.30;99.90
6260;DHT22;3163;51.516;4.000;2023-02-28T15:08:19;10.40;99.90
6260;DHT22;3163;51.516;4.000;2023-02-28T15:11:05;10.60;99.90
6260;DHT22;3163;51.516;4.000;2023-02-28T15:13:43;10.50;99.90
6260;DHT22;3163;51.516;4.000;2023-02-28T15:16:19;10.50;99.90
6260;DHT22;3163;51.516;4.000;2023-02-28T15:18:52;10.50;99.90
6260;DHT22;3163;51.516;4.000;2023-02-28T15:23:56;10.20;99.90
6260;DHT22;3163;51.516;4.000;2023-02-28T15:26:27;10.10;99.90
6260;DHT22;3163;51.516;4.000;2023-02-28T15:29:05;10.30;99.90
6260;DHT22;3163;51.516;4.000;2023-02-28T15:31:39;10.40;99.90
6260;DHT22;3163;51.516;4.000;2023-02-28T15:34:12;10.10;99.90
6260;DHT22;3163;51.516;4.000;2023-02-28T15:36:42;10.10;99.90
6260;DHT22;3163;51.516;4.000;2023-02-28T15:39:26;10.20;99.90
6260;DHT22;3163;51.516;4.000;2023-02-28T15:42:09;10.40;99.90
6260;DHT22;3163;51.516;4.000;2023-02-28T15:44:35;10.20;99.90
6260;DHT22;3163;51.516;4.000;2023-02-28T15:47:05;10.20;99.90
6260;DHT22;3163;51.516;4.000;2023-02-28T15:49:49;10.20;99.90
6260;DHT22;3163;51.516;4.000;2023-02-28T15:52:40;10.00;99.90
6260;DHT22;3163;51.516;4.000;2023-02-28T15:55:32;9.90;99.90
6260;DHT22;3163;51.516;4.000;2023-02-28T15:58:00;9.90;99.90
6260;DHT22;3163;51.516;4.000;2023-02-28T16:00:28;9.90;99.90
6260;DHT22;3163;51.516;4.000;2023-02-28T16:02:54;10.10;99.90
6260;DHT22;3163;51.516;4.000;2023-02-28T16:07:54;10.20;99.90
6260;DHT22;3163;51.516;4.000;2023-02-28T16:10:21;10.20;99.90
6260;DHT22;3163;51.516;4.000;2023-02-28T16:12:48;10.20;99.90
6260;DHT22;3163;51.516;4.000;2023-02-28T16:15:19;9.80;99.90
6260;DHT22;3163;51.516;4.000;2023-02-28T16:17:45;9.80;99.90
6260;DHT22;3163;51.516;4.000;2023-02-28T16:20:38;9.90;99.90
6260;DHT22;3163;51.516;4.000;2023-02-28T16:23:04;10.00;99.90
6260;DHT22;3163;51.516;4.000;2023-02-28T16:25:39;9.90;99.90
6260;DHT22;3163;51.516;4.000;2023-02-28T16:28:19;9.90;99.90
6260;DHT22;3163;51.516;4.000;2023-02-28T16:30:45;9.80;99.90
6260;DHT22;3163;51.516;4.000;2023-02-28T16:33:11;9.60;99.90
6260;DHT22;3163;51.516;4.000;2023-02-28T16:35:36;9.80;99.90
6260;DHT22;3163;51.516;4.000;2023-02-28T16:38:02;9.90;99.90
6260;DHT22;3163;51.516;4.000;2023-02-28T16:40:33;9.70;99.90
6260;DHT22;3163;51.516;4.000;2023-02-28T16:43:00;10.00;99.90
6260;DHT22;3163;51.516;4.000;2023-02-28T16:45:30;9.80;99.90
6260;DHT22;3163;51.516;4.000;2023-02-28T16:47:56;9.70;99.90
6260;DHT22;3163;51.516;4.000;2023-02-28T16:50:29;9.80;99.90
6260;DHT22;3163;51.516;4.000;2023-02-28T16:52:56;9.80;99.90
6260;DHT22;3163;51.516;4.000;2023-02-28T16:55:23;9.80;99.90
6260;DHT22;3163;51.516;4.000;2023-02-28T16:57:54;9.80;99.90
6260;DHT22;3163;51.516;4.000;2023-02-28T17:00:20;9.70;99.90
6260;DHT22;3163;51.516;4.000;2023-02-28T17:02:46;9.50;99.90
6260;DHT22;3163;51.516;4.000;2023-02-28T17:05:12;9.50;99.90
6260;DHT22;3163;51.516;4.000;2023-02-28T17:07:39;9.50;99.90
6260;DHT22;3163;51.516;4.000;2023-02-28T17:10:17;9.50;99.90
6260;DHT22;3163;51.516;4.000;2023-02-28T17:12:44;9.60;99.90
6260;DHT22;3163;51.516;4.000;2023-02-28T17:15:11;7.70;99.90
6260;DHT22;3163;51.516;4.000;2023-02-28T17:17:37;6.80;99.90
6260;DHT22;3163;51.516;4.000;2023-02-28T17:20:04;6.30;99.90
6260;DHT22;3163;51.516;4.000;2023-02-28T17:22:31;8.10;99.90
6260;DHT22;3163;51.516;4.000;2023-02-28T17:24:57;8.60;99.90
6260;DHT22;3163;51.516;4.000;2023-02-28T17:27:24;8.70;99.90
6260;DHT22;3163;51.516;4.000;2023-02-28T17:29:50;8.90;99.90
6260;DHT22;3163;51.516;4.000;2023-02-28T17:32:16;9.00;99.90
6260;DHT22;3163;51.516;4.000;2023-02-28T17:34:42;9.00;99.90
6260;DHT22;3163;51.516;4.000;2023-02-28T17:37:09;9.20;99.90
6260;DHT22;3163;51.516;4.000;2023-02-28T17:39:35;9.20;99.90
6260;DHT22;3163;51.516;4.000;2023-02-28T17:42:00;9.20;99.90
6260;DHT22;3163;51.516;4.000;2023-02-28T17:44:26;9.20;99.90
6260;DHT22;3163;51.516;4.000;2023-02-28T17:46:53;9.20;99.90
6260;DHT22;3163;51.516;4.000;2023-02-28T17:49:20;9.20;99.90
6260;DHT22;3163;51.516;4.000;2023-02-28T17:51:46;9.10;99.90
6260;DHT22;3163;51.516;4.000;2023-02-28T17:54:12;9.00;99.90
6260;DHT22;3163;51.516;4.000;2023-02-28T17:56:39;9.10;99.90
6260;DHT22;3163;51.516;4.000;2023-02-28T17:59:04;8.90;99.90
6260;DHT22;3163;51.516;4.000;2023-02-28T18:01:32;8.80;99.90
6260;DHT22;3163;51.516;4.000;2023-02-28T18:03:57;8.90;99.90
6260;DHT22;3163;51.516;4.000;2023-02-28T18:06:30;8.80;99.90
6260;DHT22;3163;51.516;4.000;2023-02-28T18:08:58;8.60;99.90
6260;DHT22;3163;51.516;4.000;2023-02-28T18:11:24;8.70;99.90
6260;DHT22;3163;51.516;4.000;2023-02-28T18:13:53;8.70;99.90
6260;DHT22;3163;51.516;4.000;2023-02-28T18:16:21;8.70;99.90
6260;DHT22;3163;51.516;4.000;2023-02-28T18:18:47;8.70;99.90
6260;DHT22;3163;51.516;4.000;2023-02-28T18:21:15;8.70;99.90
6260;DHT22;3163;51.516;4.000;2023-02-28T18:23:42;8.70;99.90
6260;DHT22;3163;51.516;4.000;2023-02-28T18:26:13;8.70;99.90
6260;DHT22;3163;51.516;4.000;2023-02-28T18:28:39;8.60;99.90
6260;DHT22;3163;51.516;4.000;2023-02-28T18:31:08;8.60;99.90
6260;DHT22;3163;51.516;4.000;2023-02-28T18:33:34;8.60;99.90
6260;DHT22;3163;51.516;4.000;2023-02-28T18:36:00;8.50;99.90
6260;DHT22;3163;51.516;4.000;2023-02-28T18:38:26;8.60;99.90
6260;DHT22;3163;51.516;4.000;2023-02-28T18:40:55;8.60;99.90
6260;DHT22;3163;51.516;4.000;2023-02-28T18:43:21;8.50;99.90
6260;DHT22;3163;51.516;4.000;2023-02-28T18:45:47;8.50;99.90
6260;DHT22;3163;51.516;4.000;2023-02-28T18:48:13;8.50;99.90